createdAt,value
2022-09-06T00:00:51.396Z,1.05
2022-09-06T00:02:14.834Z,1.40
2022-09-06T00:03:37.437Z,0.88
2022-09-06T00:05:01.111Z,1.40
2022-09-06T00:06:24.602Z,1.08
2022-09-06T00:07:47.177Z,1.00
2022-09-06T00:09:12.011Z,1.33
2022-09-06T00:10:34.903Z,1.27
2022-09-06T00:11:58.402Z,1.33
2022-09-06T00:13:21.371Z,1.10
2022-09-06T00:14:44.837Z,1.35
2022-09-06T00:16:09.791Z,1.27
2022-09-06T00:17:33.908Z,1.05
2022-09-06T00:18:58.015Z,1.10
2022-09-06T00:20:20.494Z,1.08
2022-09-06T00:21:43.972Z,1.13
2022-09-06T00:23:07.055Z,0.82
2022-09-06T00:24:31.977Z,0.95
2022-09-06T00:26:02.181Z,1.35
2022-09-06T00:27:24.667Z,1.02
2022-09-06T00:28:48.188Z,1.60
2022-09-06T00:30:11.892Z,1.30
2022-09-06T00:31:35.714Z,1.08
2022-09-06T00:32:58.488Z,0.98
2022-09-06T00:34:21.926Z,1.05
2022-09-06T00:35:47.294Z,1.20
2022-09-06T00:37:09.777Z,0.90
2022-09-06T00:38:33.317Z,1.25
2022-09-06T00:39:58.194Z,0.85
2022-09-06T00:41:20.804Z,1.17
2022-09-06T00:42:44.339Z,1.25
2022-09-06T00:44:08.184Z,1.10
2022-09-06T00:45:31.422Z,1.13
2022-09-06T00:46:56.102Z,1.15
2022-09-06T00:48:18.805Z,1.10
2022-09-06T00:49:45.073Z,0.90
2022-09-06T00:51:11.040Z,1.20
2022-09-06T00:52:35.604Z,0.90
2022-09-06T00:53:58.109Z,0.73
2022-09-06T00:55:24.603Z,0.85
2022-09-06T00:56:48.372Z,0.95
2022-09-06T00:58:12.281Z,0.80
2022-09-06T00:59:37.561Z,0.80
2022-09-06T01:01:01.263Z,0.80
2022-09-06T01:02:23.954Z,1.10
2022-09-06T01:03:47.537Z,1.05
2022-09-06T01:05:10.508Z,0.85
2022-09-06T01:06:42.965Z,0.82
2022-09-06T01:08:11.512Z,0.80
2022-09-06T01:09:46.439Z,0.65
2022-09-06T01:11:30.731Z,1.02
2022-09-06T01:12:58.726Z,0.68
2022-09-06T01:14:31.143Z,0.90
2022-09-06T01:15:58.880Z,0.50
2022-09-06T01:17:30.436Z,0.70
2022-09-06T01:19:11.809Z,1.10
2022-09-06T01:20:45.754Z,1.02
2022-09-06T01:22:20.814Z,1.10
2022-09-06T01:24:15.760Z,0.90
2022-09-06T01:25:44.322Z,0.82
2022-09-06T01:27:45.470Z,0.80
2022-09-06T01:29:12.275Z,0.80
2022-09-06T01:30:38.168Z,0.90
2022-09-06T01:32:06.530Z,0.93
2022-09-06T01:33:36.394Z,0.82
2022-09-06T01:35:02.884Z,0.90
2022-09-06T01:36:28.334Z,0.60
2022-09-06T01:37:51.883Z,1.33
2022-09-06T01:39:22.100Z,0.60
2022-09-06T01:40:45.538Z,0.70
2022-09-06T01:42:10.520Z,0.50
2022-09-06T01:43:37.915Z,0.68
2022-09-06T01:45:02.762Z,0.82
2022-09-06T01:46:32.187Z,0.50
2022-09-06T01:48:03.879Z,0.65
2022-09-06T01:49:35.002Z,0.85
2022-09-06T01:51:04.719Z,0.80
2022-09-06T01:52:32.087Z,0.73
2022-09-06T01:54:11.484Z,0.90
2022-09-06T01:55:43.362Z,1.17
2022-09-06T01:57:17.648Z,1.30
2022-09-06T01:59:00.729Z,0.77
2022-09-06T02:00:23.790Z,0.47
2022-09-06T02:01:57.222Z,0.77
2022-09-06T02:03:29.292Z,0.90
2022-09-06T02:04:56.064Z,0.88
2022-09-06T02:06:21.651Z,0.68
2022-09-06T02:07:44.569Z,0.70
2022-09-06T02:09:10.392Z,0.73
2022-09-06T02:10:39.435Z,0.90
2022-09-06T02:12:04.204Z,0.50
2022-09-06T02:13:31.194Z,0.88
2022-09-06T02:15:00.191Z,0.60
2022-09-06T02:16:25.941Z,0.75
2022-09-06T02:17:53.848Z,0.68
2022-09-06T02:19:20.612Z,1.15
2022-09-06T02:20:49.039Z,0.60
2022-09-06T02:22:15.908Z,0.70
2022-09-06T02:23:41.398Z,0.52
2022-09-06T02:25:07.035Z,0.80
2022-09-06T02:26:34.059Z,1.10
2022-09-06T02:27:56.694Z,0.88
2022-09-06T02:29:20.540Z,0.90
2022-09-06T02:30:48.542Z,0.90
2022-09-06T02:32:15.333Z,0.80
2022-09-06T02:33:38.108Z,0.93
2022-09-06T02:35:02.390Z,0.73
2022-09-06T02:36:25.199Z,1.17
2022-09-06T02:37:48.664Z,1.50
2022-09-06T02:39:11.209Z,0.82
2022-09-06T02:40:35.043Z,1.08
2022-09-06T02:41:58.551Z,0.90
2022-09-06T02:43:22.404Z,1.15
2022-09-06T02:44:45.864Z,0.88
2022-09-06T02:46:09.983Z,0.70
2022-09-06T02:47:33.582Z,0.95
2022-09-06T02:48:57.772Z,0.80
2022-09-06T02:50:21.215Z,0.63
2022-09-06T02:51:44.677Z,0.80
2022-09-06T02:53:10.168Z,0.82
2022-09-06T02:54:33.694Z,0.70
2022-09-06T02:55:56.936Z,0.60
2022-09-06T02:57:20.377Z,1.02
2022-09-06T02:58:43.868Z,0.93
2022-09-06T03:00:07.978Z,0.93
2022-09-06T03:01:32.855Z,1.23
2022-09-06T03:02:55.896Z,0.70
2022-09-06T03:04:19.344Z,0.90
2022-09-06T03:05:41.864Z,0.90
2022-09-06T03:07:05.460Z,0.80
2022-09-06T03:08:33.386Z,0.77
2022-09-06T03:09:57.164Z,1.20
2022-09-06T03:11:19.600Z,0.88
2022-09-06T03:12:43.998Z,0.85
2022-09-06T03:14:07.470Z,1.33
2022-09-06T03:15:29.908Z,0.82
2022-09-06T03:16:54.804Z,0.77
2022-09-06T03:18:17.400Z,1.10
2022-09-06T03:19:43.281Z,1.63
2022-09-06T03:21:07.261Z,1.00
2022-09-06T03:22:29.743Z,0.68
2022-09-06T03:23:53.228Z,1.10
2022-09-06T03:25:15.766Z,0.95
2022-09-06T03:26:39.190Z,1.00
2022-09-06T03:28:01.902Z,1.08
2022-09-06T03:29:25.397Z,0.90
2022-09-06T03:30:50.205Z,1.15
2022-09-06T03:32:14.029Z,0.85
2022-09-06T03:33:37.558Z,0.98
2022-09-06T03:35:01.007Z,1.00
2022-09-06T03:36:24.448Z,0.60
2022-09-06T03:37:47.885Z,1.00
2022-09-06T03:39:11.351Z,0.77
2022-09-06T03:40:33.802Z,0.90
2022-09-06T03:41:57.412Z,1.35
2022-09-06T03:43:20.929Z,0.93
2022-09-06T03:44:44.361Z,1.20
2022-09-06T03:46:08.096Z,0.80
2022-09-06T03:47:32.079Z,1.00
2022-09-06T03:48:55.512Z,1.30
2022-09-06T03:50:18.055Z,0.95
2022-09-06T03:51:41.514Z,0.80
2022-09-06T03:53:04.035Z,1.00
2022-09-06T03:54:28.498Z,0.73
2022-09-06T03:55:52.661Z,1.08
2022-09-06T03:57:16.109Z,1.02
2022-09-06T03:58:39.556Z,0.90
2022-09-06T04:00:02.193Z,1.10
2022-09-06T04:01:25.806Z,1.02
2022-09-06T04:02:49.723Z,1.10
2022-09-06T04:04:13.173Z,1.00
2022-09-06T04:05:36.636Z,0.68
2022-09-06T04:06:59.107Z,1.13
2022-09-06T04:08:22.566Z,0.77
2022-09-06T04:09:45.032Z,1.10
2022-09-06T04:11:08.769Z,0.80
2022-09-06T04:12:32.206Z,0.88
2022-09-06T04:13:54.686Z,1.10
2022-09-06T04:15:18.359Z,1.20
2022-09-06T04:16:41.906Z,1.00
2022-09-06T04:18:09.115Z,0.90
2022-09-06T04:19:32.801Z,1.02
2022-09-06T04:20:56.156Z,0.95
2022-09-06T04:22:19.654Z,1.17
2022-09-06T04:23:43.165Z,0.88
2022-09-06T04:25:06.647Z,1.15
2022-09-06T04:26:30.240Z,1.15
2022-09-06T04:27:52.690Z,1.10
2022-09-06T04:29:16.117Z,1.02
2022-09-06T04:30:38.561Z,0.60
2022-09-06T04:32:02.132Z,1.52
2022-09-06T04:33:27.949Z,1.13
2022-09-06T04:34:51.554Z,1.00
2022-09-06T04:36:15.172Z,1.02
2022-09-06T04:37:37.644Z,0.93
2022-09-06T04:39:01.064Z,0.80
2022-09-06T04:40:23.495Z,0.82
2022-09-06T04:41:46.994Z,1.40
2022-09-06T04:43:09.582Z,1.10
2022-09-06T04:44:33.070Z,1.38
2022-09-06T04:45:55.616Z,1.20
2022-09-06T04:47:19.313Z,1.25
2022-09-06T04:48:43.164Z,1.20
2022-09-06T04:50:07.172Z,0.90
2022-09-06T04:51:31.611Z,1.00
2022-09-06T04:52:54.127Z,1.13
2022-09-06T04:54:17.564Z,1.40
2022-09-06T04:55:40.024Z,1.15
2022-09-06T04:57:03.516Z,1.35
2022-09-06T04:58:27.317Z,0.80
2022-09-06T04:59:51.042Z,0.93
2022-09-06T05:01:13.764Z,1.42
2022-09-06T05:02:37.461Z,0.90
2022-09-06T05:04:02.460Z,1.23
2022-09-06T05:05:25.370Z,1.13
2022-09-06T05:06:49.413Z,0.90
2022-09-06T05:08:11.998Z,1.00
2022-09-06T05:09:36.767Z,1.38
2022-09-06T05:11:00.240Z,1.13
2022-09-06T05:12:23.709Z,1.17
2022-09-06T05:13:47.686Z,0.98
2022-09-06T05:15:12.001Z,1.00
2022-09-06T05:16:35.529Z,1.30
2022-09-06T05:18:03.517Z,1.38
2022-09-06T05:19:28.375Z,1.33
2022-09-06T05:20:52.556Z,0.82
2022-09-06T05:22:16.115Z,1.00
2022-09-06T05:23:39.619Z,1.52
2022-09-06T05:25:02.138Z,1.00
2022-09-06T05:26:25.741Z,1.05
2022-09-06T05:27:49.287Z,1.23
2022-09-06T05:29:11.786Z,1.08
2022-09-06T05:30:35.248Z,0.70
2022-09-06T05:31:58.861Z,0.93
2022-09-06T05:33:22.650Z,1.05
2022-09-06T05:34:47.549Z,1.55
2022-09-06T05:36:11.092Z,1.00
2022-09-06T05:37:34.612Z,1.50
2022-09-06T05:38:58.809Z,1.35
2022-09-06T05:40:22.268Z,1.27
2022-09-06T05:41:45.795Z,1.23
2022-09-06T05:43:08.241Z,1.30
2022-09-06T05:44:31.825Z,1.25
2022-09-06T05:45:55.291Z,1.42
2022-09-06T05:47:18.354Z,1.27
2022-09-06T05:48:41.884Z,1.70
2022-09-06T05:50:08.080Z,0.90
2022-09-06T05:51:31.288Z,0.90
2022-09-06T05:52:55.563Z,1.17
2022-09-06T05:54:19.058Z,1.45
2022-09-06T05:55:43.246Z,0.70
2022-09-06T05:57:06.842Z,1.20
2022-09-06T05:58:30.363Z,1.30
2022-09-06T05:59:54.329Z,1.85
2022-09-06T06:01:19.009Z,1.20
2022-09-06T06:02:42.712Z,1.02
2022-09-06T06:04:07.985Z,1.08
2022-09-06T06:05:32.966Z,0.90
2022-09-06T06:06:56.508Z,0.82
2022-09-06T06:08:18.949Z,1.17
2022-09-06T06:09:42.435Z,1.33
2022-09-06T06:11:05.032Z,1.30
2022-09-06T06:12:28.482Z,1.00
2022-09-06T06:13:52.505Z,1.00
2022-09-06T06:15:15.008Z,0.80
2022-09-06T06:16:38.750Z,1.27
2022-09-06T06:18:02.280Z,1.27
2022-09-06T06:19:26.618Z,1.27
2022-09-06T06:20:51.768Z,0.90
2022-09-06T06:22:15.236Z,0.70
2022-09-06T06:23:37.740Z,1.75
2022-09-06T06:25:01.209Z,1.30
2022-09-06T06:26:24.523Z,1.02
2022-09-06T06:27:47.961Z,1.52
2022-09-06T06:29:11.449Z,0.90
2022-09-06T06:30:34.025Z,1.10
2022-09-06T06:31:57.503Z,1.13
2022-09-06T06:33:20.060Z,1.48
2022-09-06T06:34:43.760Z,1.30
2022-09-06T06:36:20.613Z,1.10
2022-09-06T06:37:44.642Z,1.08
2022-09-06T06:39:09.498Z,1.10
2022-09-06T06:40:32.021Z,1.30
2022-09-06T06:41:55.640Z,1.20
2022-09-06T06:43:18.431Z,1.00
2022-09-06T06:44:41.907Z,1.00
2022-09-06T06:46:05.690Z,1.33
2022-09-06T06:47:29.192Z,1.30
2022-09-06T06:48:54.831Z,1.95
2022-09-06T06:50:18.713Z,0.93
2022-09-06T06:51:44.052Z,0.98
2022-09-06T06:53:27.535Z,1.60
2022-09-06T06:54:51.044Z,1.08
2022-09-06T06:56:18.277Z,1.25
2022-09-06T06:57:41.756Z,1.40
2022-09-06T06:59:06.866Z,1.17
2022-09-06T07:00:29.520Z,0.75
2022-09-06T07:01:53.411Z,1.50
2022-09-06T07:03:17.018Z,1.02
2022-09-06T07:04:40.455Z,1.55
2022-09-06T07:07:36.701Z,1.35
2022-09-06T07:09:01.905Z,1.50
2022-09-06T07:11:56.152Z,1.00
2022-09-06T07:13:18.954Z,1.38
2022-09-06T07:14:42.416Z,1.33
2022-09-06T07:16:09.328Z,1.13
2022-09-06T07:17:32.805Z,1.38
2022-09-06T07:18:56.483Z,1.27
2022-09-06T07:20:20.405Z,3.70
2022-09-06T07:21:43.938Z,3.35
2022-09-06T07:24:52.386Z,1.55
2022-09-06T07:26:16.576Z,1.05
2022-09-06T07:27:48.069Z,2.55
2022-09-06T07:29:12.497Z,1.20
2022-09-06T07:30:37.286Z,2.28
2022-09-06T07:33:32.962Z,1.80
2022-09-06T07:34:56.412Z,1.40
2022-09-06T07:36:19.880Z,1.63
2022-09-06T07:37:43.471Z,3.88
2022-09-06T07:39:08.448Z,3.15
2022-09-06T07:40:32.572Z,3.15
2022-09-06T07:41:56.055Z,2.28
2022-09-06T07:43:18.503Z,7.22
2022-09-06T07:44:41.973Z,1.50
2022-09-06T07:46:07.215Z,1.17
2022-09-06T07:49:22.636Z,4.13
2022-09-06T07:50:49.238Z,3.10
2022-09-06T07:54:19.426Z,2.67
2022-09-06T07:55:41.985Z,1.35
2022-09-06T07:57:05.566Z,1.65
2022-09-06T07:58:29.565Z,3.17
2022-09-06T07:59:53.049Z,6.05
2022-09-06T08:01:26.897Z,4.63
2022-09-06T08:02:50.446Z,1.85
2022-09-06T08:04:15.071Z,1.35
2022-09-06T08:09:01.472Z,1.45
2022-09-06T08:10:25.044Z,1.23
2022-09-06T08:11:51.045Z,1.58
2022-09-06T08:13:14.471Z,1.48
2022-09-06T08:14:38.059Z,1.83
2022-09-06T08:16:01.053Z,1.50
2022-09-06T08:17:24.594Z,1.67
2022-09-06T08:18:52.284Z,1.73
2022-09-06T08:20:15.945Z,1.60
2022-09-06T08:21:39.464Z,1.92
2022-09-06T08:23:02.933Z,1.70
2022-09-06T08:24:26.701Z,2.08
2022-09-06T08:25:58.535Z,1.75
2022-09-06T08:27:23.355Z,1.58
2022-09-06T08:28:46.956Z,1.60
2022-09-06T08:30:11.857Z,1.80
2022-09-06T08:31:36.546Z,2.00
2022-09-06T08:33:00.030Z,1.67
2022-09-06T08:34:23.529Z,1.63
2022-09-06T08:35:56.868Z,1.50
2022-09-06T08:37:24.833Z,1.77
2022-09-06T08:38:48.887Z,1.63
2022-09-06T08:40:13.291Z,1.55
2022-09-06T08:41:48.716Z,2.00
2022-09-06T08:43:18.207Z,1.63
2022-09-06T08:44:59.238Z,1.75
2022-09-06T08:46:24.891Z,1.70
2022-09-06T08:47:49.877Z,2.00
2022-09-06T08:49:13.507Z,2.00
2022-09-06T08:50:37.603Z,1.42
2022-09-06T08:52:25.301Z,1.67
2022-09-06T08:53:49.999Z,1.50
2022-09-06T08:55:31.340Z,2.22
2022-09-06T08:57:05.948Z,1.80
2022-09-06T08:58:42.654Z,1.67
2022-09-06T09:00:11.077Z,1.63
2022-09-06T09:01:38.552Z,1.50
2022-09-06T09:03:07.767Z,2.55
2022-09-06T09:04:32.325Z,2.00
2022-09-06T09:05:55.929Z,2.13
2022-09-06T09:07:33.847Z,2.05
2022-09-06T09:09:02.710Z,1.77
2022-09-06T09:10:30.414Z,2.30
2022-09-06T09:11:54.103Z,1.85
2022-09-06T09:13:29.319Z,2.17
2022-09-06T09:14:57.376Z,3.30
2022-09-06T09:16:21.243Z,3.15
2022-09-06T09:17:45.247Z,7.97
2022-09-06T09:19:09.410Z,4.22
2022-09-06T09:20:32.860Z,2.80
2022-09-06T09:21:56.739Z,4.60
2022-09-06T09:23:20.303Z,5.90
2022-09-06T09:24:43.958Z,3.40
2022-09-06T09:26:11.350Z,4.13
2022-09-06T09:27:35.869Z,3.92
2022-09-06T09:29:07.339Z,3.92
2022-09-06T09:30:49.985Z,1.90
2022-09-06T09:32:13.697Z,3.45
2022-09-06T09:33:38.859Z,2.47
2022-09-06T09:35:30.592Z,5.63
2022-09-06T09:38:56.983Z,4.72
2022-09-06T09:40:31.529Z,5.47
2022-09-06T09:41:54.987Z,4.18
2022-09-06T09:43:20.940Z,1.50
2022-09-06T09:44:44.789Z,1.60
2022-09-06T09:46:15.715Z,2.35
2022-09-06T09:47:39.187Z,1.83
2022-09-06T09:49:05.492Z,3.33
2022-09-06T09:50:31.574Z,1.80
2022-09-06T09:52:07.268Z,2.20
2022-09-06T09:53:30.654Z,2.00
2022-09-06T09:54:56.129Z,1.75
2022-09-06T09:56:20.231Z,2.03
2022-09-06T09:57:48.309Z,2.00
2022-09-06T09:59:22.364Z,2.05
2022-09-06T10:00:45.904Z,2.08
2022-09-06T10:02:22.765Z,2.22
2022-09-06T10:05:28.884Z,1.80
2022-09-06T10:08:33.697Z,2.13
2022-09-06T10:10:01.493Z,2.65
2022-09-06T10:11:41.826Z,2.58
2022-09-06T10:13:09.855Z,2.25
2022-09-06T10:14:41.225Z,2.40
2022-09-06T10:16:05.106Z,2.58
2022-09-06T10:17:35.279Z,2.78
2022-09-06T10:18:58.655Z,2.60
2022-09-06T10:20:23.670Z,2.60
2022-09-06T10:21:47.286Z,2.53
2022-09-06T10:23:14.544Z,2.25
2022-09-06T10:24:46.852Z,2.00
2022-09-06T10:26:13.085Z,2.13
2022-09-06T10:27:42.511Z,2.28
2022-09-06T10:29:10.227Z,1.98
2022-09-06T10:30:36.107Z,2.47
2022-09-06T10:32:08.559Z,2.53
2022-09-06T10:33:40.545Z,2.25
2022-09-06T10:35:11.002Z,2.50
2022-09-06T10:36:37.352Z,2.65
2022-09-06T10:38:19.761Z,2.30
2022-09-06T10:39:50.345Z,2.45
2022-09-06T10:41:54.494Z,2.20
2022-09-06T10:43:20.643Z,2.03
2022-09-06T10:44:55.447Z,3.05
2022-09-06T10:46:21.729Z,2.72
2022-09-06T10:47:57.614Z,2.13
2022-09-06T10:49:22.998Z,2.55
2022-09-06T10:50:50.999Z,2.47
2022-09-06T10:52:18.013Z,2.42
2022-09-06T10:53:47.542Z,2.20
2022-09-06T10:55:17.945Z,2.05
2022-09-06T10:56:44.837Z,1.92
2022-09-06T10:58:18.214Z,2.22
2022-09-06T10:59:51.469Z,2.28
2022-09-06T11:01:26.821Z,2.55
2022-09-06T11:06:30.132Z,2.33
2022-09-06T11:09:44.677Z,2.38
2022-09-06T11:11:12.509Z,2.22
2022-09-06T11:12:40.323Z,2.08
2022-09-06T11:14:08.255Z,2.38
2022-09-06T11:15:36.217Z,1.70
2022-09-06T11:17:03.138Z,1.52
2022-09-06T11:18:29.516Z,2.20
2022-09-06T11:20:03.499Z,2.00
2022-09-06T11:21:45.972Z,2.80
2022-09-06T11:23:23.247Z,2.17
2022-09-06T11:25:11.703Z,2.47
2022-09-06T11:26:45.670Z,2.42
2022-09-06T11:28:11.514Z,2.63
2022-09-06T11:29:36.540Z,2.05
2022-09-06T11:31:00.255Z,1.70
2022-09-06T11:32:34.150Z,2.20
2022-09-06T11:34:06.673Z,1.65
2022-09-06T11:35:33.486Z,2.35
2022-09-06T11:36:58.260Z,2.40
2022-09-06T11:38:24.961Z,2.47
2022-09-06T11:41:49.671Z,2.10
2022-09-06T11:43:16.376Z,2.30
2022-09-06T11:45:11.119Z,2.20
2022-09-06T11:47:02.059Z,1.58
2022-09-06T11:49:01.579Z,2.42
2022-09-06T11:50:28.038Z,2.35
2022-09-06T11:51:52.819Z,2.38
2022-09-06T11:53:18.858Z,2.92
2022-09-06T11:54:45.271Z,2.38
2022-09-06T11:56:13.755Z,2.60
2022-09-06T11:57:37.207Z,2.88
2022-09-06T11:59:04.878Z,2.35
2022-09-06T12:00:28.324Z,2.38
2022-09-06T12:02:02.309Z,2.58
2022-09-06T12:05:31.614Z,3.05
2022-09-06T12:07:10.787Z,2.75
2022-09-06T12:08:35.477Z,2.42
2022-09-06T12:09:59.341Z,2.75
2022-09-06T12:11:35.015Z,2.50
2022-09-06T12:12:59.404Z,2.40
2022-09-06T12:14:34.360Z,2.47
2022-09-06T12:15:56.981Z,3.00
2022-09-06T12:17:21.308Z,3.55
2022-09-06T12:18:56.052Z,2.95
2022-09-06T12:20:56.602Z,2.35
2022-09-06T12:23:03.403Z,2.97
2022-09-06T12:24:54.169Z,2.22
2022-09-06T12:26:51.870Z,2.83
2022-09-06T12:28:34.695Z,2.83
2022-09-06T12:29:59.753Z,2.50
2022-09-06T12:31:32.262Z,2.85
2022-09-06T12:32:56.214Z,2.65
2022-09-06T12:34:22.565Z,2.40
2022-09-06T12:36:04.529Z,2.92
2022-09-06T12:37:37.190Z,2.58
2022-09-06T12:39:01.680Z,2.20
2022-09-06T12:40:28.025Z,2.83
2022-09-06T12:41:54.950Z,2.97
2022-09-06T12:43:19.207Z,3.00
2022-09-06T12:44:45.474Z,2.80
2022-09-06T12:46:09.193Z,3.20
2022-09-06T12:47:35.080Z,2.38
2022-09-06T12:49:09.999Z,2.65
2022-09-06T12:50:33.650Z,2.78
2022-09-06T12:52:09.265Z,2.67
2022-09-06T12:53:34.397Z,2.65
2022-09-06T12:54:57.779Z,2.75
2022-09-06T12:56:24.232Z,2.47
2022-09-06T12:57:52.100Z,2.35
2022-09-06T12:59:19.290Z,2.85
2022-09-06T13:00:45.101Z,2.50
2022-09-06T13:02:13.714Z,2.67
2022-09-06T13:03:40.612Z,2.40
2022-09-06T13:05:06.602Z,2.45
2022-09-06T13:06:31.993Z,2.70
2022-09-06T13:07:56.841Z,2.42
2022-09-06T13:09:20.843Z,2.63
2022-09-06T13:10:46.787Z,2.45
2022-09-06T13:12:18.472Z,2.40
2022-09-06T13:13:47.772Z,2.30
2022-09-06T13:15:19.552Z,2.80
2022-09-06T13:16:45.904Z,2.55
2022-09-06T13:18:32.928Z,2.47
2022-09-06T13:19:58.078Z,2.35
2022-09-06T13:21:30.877Z,2.42
2022-09-06T13:22:55.770Z,2.60
2022-09-06T13:24:25.579Z,2.83
2022-09-06T13:25:50.048Z,2.53
2022-09-06T13:27:36.612Z,3.08
2022-09-06T13:29:11.638Z,2.50
2022-09-06T13:30:41.964Z,2.60
2022-09-06T13:32:09.542Z,3.58
2022-09-06T13:33:33.160Z,2.60
2022-09-06T13:34:57.910Z,2.53
2022-09-06T13:36:24.877Z,3.00
2022-09-06T13:37:49.444Z,5.65
2022-09-06T13:39:12.971Z,2.80
2022-09-06T13:41:06.932Z,2.40
2022-09-06T13:42:30.715Z,2.47
2022-09-06T13:44:01.617Z,2.40
2022-09-06T13:45:28.721Z,2.70
2022-09-06T13:46:55.139Z,2.95
2022-09-06T13:48:29.035Z,2.88
2022-09-06T13:49:55.128Z,2.85
2022-09-06T13:51:19.185Z,2.90
2022-09-06T13:52:42.618Z,2.42
2022-09-06T13:54:07.719Z,2.80
2022-09-06T13:55:33.775Z,2.88
2022-09-06T13:56:57.601Z,2.85
2022-09-06T13:58:21.665Z,2.80
2022-09-06T13:59:46.550Z,2.55
2022-09-06T14:01:10.539Z,2.67
2022-09-06T14:02:34.079Z,2.90
2022-09-06T14:03:56.578Z,2.63
2022-09-06T14:05:20.045Z,2.53
2022-09-06T14:06:43.655Z,3.05
2022-09-06T14:08:07.175Z,2.90
2022-09-06T14:09:31.255Z,2.83
2022-09-06T14:10:54.226Z,3.53
2022-09-06T14:12:17.838Z,2.97
2022-09-06T14:13:41.468Z,2.72
2022-09-06T14:15:07.421Z,5.28
2022-09-06T14:16:30.120Z,5.63
2022-09-06T14:17:53.723Z,4.28
2022-09-06T14:19:17.423Z,2.85
2022-09-06T14:20:41.382Z,5.18
2022-09-06T14:22:06.871Z,3.35
2022-09-06T14:23:30.424Z,2.80
2022-09-06T14:24:54.117Z,3.25
2022-09-06T14:26:18.762Z,2.38
2022-09-06T14:27:42.347Z,2.65
2022-09-06T14:29:06.039Z,2.70
2022-09-06T14:30:30.936Z,2.88
2022-09-06T14:31:54.393Z,2.90
2022-09-06T14:33:17.916Z,2.80
2022-09-06T14:34:41.355Z,2.22
2022-09-06T14:36:08.181Z,2.72
2022-09-06T14:37:31.589Z,2.92
2022-09-06T14:38:54.438Z,2.55
2022-09-06T14:40:18.292Z,2.97
2022-09-06T14:41:41.798Z,2.88
2022-09-06T14:43:04.971Z,2.72
2022-09-06T14:44:28.520Z,2.30
2022-09-06T14:45:52.473Z,3.03
2022-09-06T14:47:16.772Z,2.85
2022-09-06T14:48:42.387Z,2.90
2022-09-06T14:50:07.402Z,3.42
2022-09-06T14:51:31.657Z,2.92
2022-09-06T14:52:55.292Z,2.58
2022-09-06T14:54:19.312Z,2.60
2022-09-06T14:55:42.861Z,3.50
2022-09-06T14:57:06.431Z,2.42
2022-09-06T14:58:31.072Z,2.95
2022-09-06T14:59:54.721Z,2.47
2022-09-06T15:01:20.675Z,2.75
2022-09-06T15:02:44.482Z,3.63
2022-09-06T15:04:09.700Z,2.80
2022-09-06T15:05:33.288Z,2.58
2022-09-06T15:06:56.787Z,2.80
2022-09-06T15:08:20.283Z,2.75
2022-09-06T15:09:43.969Z,2.97
2022-09-06T15:11:08.365Z,3.65
2022-09-06T15:12:32.356Z,2.83
2022-09-06T15:13:55.897Z,2.63
2022-09-06T15:15:20.211Z,2.95
2022-09-06T15:16:45.624Z,2.88
2022-09-06T15:18:08.174Z,3.25
2022-09-06T15:19:33.863Z,2.95
2022-09-06T15:20:57.396Z,3.70
2022-09-06T15:22:20.913Z,3.03
2022-09-06T15:23:44.610Z,2.60
2022-09-06T15:25:09.015Z,2.78
2022-09-06T15:26:33.448Z,3.60
2022-09-06T15:27:56.949Z,2.75
2022-09-06T15:29:21.341Z,3.17
2022-09-06T15:30:45.268Z,2.95
2022-09-06T15:32:10.202Z,3.00
2022-09-06T15:33:33.695Z,2.78
2022-09-06T15:35:00.319Z,3.00
2022-09-06T15:36:27.405Z,3.10
2022-09-06T15:37:50.908Z,2.95
2022-09-06T15:39:14.483Z,2.83
2022-09-06T15:40:38.202Z,2.83
2022-09-06T15:42:01.790Z,2.92
2022-09-06T15:43:24.432Z,3.25
2022-09-06T15:44:47.960Z,3.30
2022-09-06T15:46:11.852Z,3.95
2022-09-06T15:47:36.755Z,3.72
2022-09-06T15:48:59.272Z,4.85
2022-09-06T15:50:47.526Z,4.00
2022-09-06T15:52:09.222Z,6.63
2022-09-06T15:53:31.736Z,4.05
2022-09-06T15:55:12.741Z,2.63
2022-09-06T15:56:36.511Z,3.20
2022-09-06T15:58:00.062Z,3.20
2022-09-06T15:59:23.748Z,4.78
2022-09-06T16:00:50.001Z,3.45
2022-09-06T16:02:17.200Z,4.93
2022-09-06T16:03:44.132Z,4.30
2022-09-06T16:05:08.281Z,8.90
2022-09-06T16:06:33.463Z,4.90
2022-09-06T16:07:55.984Z,11.10
2022-09-06T16:09:19.762Z,4.90
2022-09-06T16:10:43.357Z,2.85
2022-09-06T16:12:07.552Z,5.10
2022-09-06T16:13:33.758Z,2.92
2022-09-06T16:14:57.356Z,7.63
2022-09-06T16:16:21.516Z,6.03
2022-09-06T16:17:45.475Z,5.80
2022-09-06T16:19:09.993Z,3.15
2022-09-06T16:20:33.618Z,5.10
2022-09-06T16:21:58.735Z,4.72
2022-09-06T16:23:22.567Z,3.50
2022-09-06T16:24:46.069Z,2.75
2022-09-06T16:26:10.488Z,3.58
2022-09-06T16:27:34.046Z,3.35
2022-09-06T16:28:57.765Z,2.90
2022-09-06T16:30:22.073Z,2.78
2022-09-06T16:31:46.077Z,2.72
2022-09-06T16:33:08.676Z,3.03
2022-09-06T16:34:33.657Z,2.75
2022-09-06T16:35:56.294Z,3.08
2022-09-06T16:37:19.811Z,3.03
2022-09-06T16:38:44.882Z,2.92
2022-09-06T16:40:10.202Z,2.80
2022-09-06T16:41:37.612Z,2.85
2022-09-06T16:43:01.215Z,3.15
2022-09-06T16:44:24.851Z,2.72
2022-09-06T16:45:58.077Z,3.22
2022-09-06T16:47:21.655Z,2.53
2022-09-06T16:48:47.177Z,2.50
2022-09-06T16:50:12.352Z,2.72
2022-09-06T16:51:34.945Z,3.25
2022-09-06T16:52:58.484Z,2.80
2022-09-06T16:54:22.513Z,3.00
2022-09-06T16:55:46.080Z,2.17
2022-09-06T16:57:09.680Z,2.95
2022-09-06T16:58:32.283Z,2.80
2022-09-06T16:59:55.865Z,3.42
2022-09-06T17:01:19.018Z,2.72
2022-09-06T17:02:46.985Z,3.00
2022-09-06T17:04:11.194Z,3.05
2022-09-06T17:05:36.144Z,6.80
2022-09-06T17:06:59.698Z,3.47
2022-09-06T17:08:22.342Z,3.28
2022-09-06T17:09:46.436Z,3.05
2022-09-06T17:11:11.715Z,3.28
2022-09-06T17:12:35.265Z,4.93
2022-09-06T17:13:59.544Z,7.78
2022-09-06T17:15:23.054Z,7.07
2022-09-06T17:17:04.196Z,8.07
2022-09-06T17:18:26.852Z,4.07
2022-09-06T17:19:50.781Z,3.35
2022-09-06T17:21:15.766Z,3.28
2022-09-06T17:22:39.322Z,2.63
2022-09-06T17:24:04.548Z,3.90
2022-09-06T17:25:28.225Z,5.05
2022-09-06T17:26:51.814Z,3.95
2022-09-06T17:28:14.321Z,6.47
2022-09-06T17:29:39.910Z,6.25
2022-09-06T17:31:04.329Z,4.38
2022-09-06T17:32:28.050Z,2.78
2022-09-06T17:33:51.052Z,3.13
2022-09-06T17:35:14.630Z,3.17
2022-09-06T17:36:40.264Z,2.85
2022-09-06T17:38:03.854Z,2.92
2022-09-06T17:39:27.395Z,2.35
2022-09-06T17:40:59.508Z,2.88
2022-09-06T17:42:23.057Z,2.70
2022-09-06T17:43:45.719Z,2.60
2022-09-06T17:45:10.016Z,2.80
2022-09-06T17:46:33.773Z,2.83
2022-09-06T17:47:56.482Z,2.25
2022-09-06T17:49:20.424Z,2.90
2022-09-06T17:50:44.258Z,2.67
2022-09-06T17:52:09.594Z,2.97
2022-09-06T17:53:32.138Z,2.75
2022-09-06T17:54:55.664Z,2.78
2022-09-06T17:56:19.006Z,2.30
2022-09-06T17:57:42.514Z,2.88
2022-09-06T17:59:07.862Z,2.70
2022-09-06T18:00:30.958Z,2.83
2022-09-06T18:01:54.523Z,2.65
2022-09-06T18:03:18.028Z,2.03
2022-09-06T18:04:41.691Z,2.90
2022-09-06T18:06:07.561Z,2.47
2022-09-06T18:07:32.450Z,2.85
2022-09-06T18:09:00.951Z,2.47
2022-09-06T18:10:24.470Z,2.70
2022-09-06T18:11:48.076Z,3.22
2022-09-06T18:13:11.187Z,2.42
2022-09-06T18:14:34.740Z,2.50
2022-09-06T18:15:57.296Z,2.03
2022-09-06T18:17:20.773Z,2.50
2022-09-06T18:18:44.452Z,2.58
2022-09-06T18:20:09.448Z,2.15
2022-09-06T18:21:34.206Z,2.58
2022-09-06T18:22:59.745Z,2.70
2022-09-06T18:24:23.893Z,2.17
2022-09-06T18:25:57.704Z,2.10
2022-09-06T18:27:21.366Z,2.88
2022-09-06T18:28:44.222Z,2.63
2022-09-06T18:30:12.834Z,2.65
2022-09-06T18:31:38.454Z,2.20
2022-09-06T18:33:02.108Z,2.28
2022-09-06T18:34:28.069Z,2.53
2022-09-06T18:35:51.785Z,2.55
2022-09-06T18:37:15.701Z,2.72
2022-09-06T18:38:42.713Z,2.42
2022-09-06T18:40:07.131Z,2.85
2022-09-06T18:41:48.276Z,2.60
2022-09-06T18:43:12.504Z,2.47
2022-09-06T18:44:36.966Z,2.28
2022-09-06T18:46:08.105Z,2.53
2022-09-06T18:47:31.668Z,2.35
2022-09-06T18:48:55.596Z,2.90
2022-09-06T18:50:20.649Z,2.58
2022-09-06T18:51:44.661Z,2.70
2022-09-06T18:53:08.388Z,2.28
2022-09-06T18:54:33.809Z,2.45
2022-09-06T18:55:56.361Z,2.55
2022-09-06T18:57:19.927Z,2.60
2022-09-06T18:58:44.881Z,2.63
2022-09-06T19:00:12.729Z,2.58
2022-09-06T19:01:36.604Z,2.60
2022-09-06T19:03:02.744Z,2.80
2022-09-06T19:04:26.563Z,2.22
2022-09-06T19:05:50.187Z,2.45
2022-09-06T19:07:13.758Z,2.72
2022-09-06T19:08:36.384Z,2.63
2022-09-06T19:10:01.281Z,2.65
2022-09-06T19:11:31.641Z,2.60
2022-09-06T19:12:57.144Z,2.50
2022-09-06T19:14:21.187Z,2.17
2022-09-06T19:15:44.349Z,2.22
2022-09-06T19:17:07.896Z,2.75
2022-09-06T19:18:30.947Z,2.15
2022-09-06T19:19:54.753Z,2.40
2022-09-06T19:21:19.508Z,2.55
2022-09-06T19:22:43.078Z,2.28
2022-09-06T19:24:08.021Z,2.92
2022-09-06T19:25:32.909Z,2.72
2022-09-06T19:26:56.431Z,2.60
2022-09-06T19:28:19.998Z,2.42
2022-09-06T19:29:43.799Z,2.47
2022-09-06T19:31:13.246Z,2.25
2022-09-06T19:32:37.083Z,2.50
2022-09-06T19:34:00.226Z,2.67
2022-09-06T19:35:23.929Z,2.17